»·PEaware :: N902SQ KRAL-KSJC

N902SQ :: KRAL-KSJC

FLIGHT INFORMATION

Flight Status: Arrived
Operator: Privately registered:
United States
More flights under this callsign
Pilot: Gabor H. (24209)
Aircraft: SOCATA TBM-900
(TBM9)
More flights by this aircraft type
Origin: KRAL Riverside Mun
United States
Destination: KSJC Mineta San Jose Intl
United States
More flights between these airports :: More routes between these airports
Route: RAL2 PDZ V186 DARTS V459 LHS GMN V137 AVE ROBIE5
File this flight plan on PilotEdge
Remarks:
Altitude:
(Current/Filed)
26,000ft
Speed:
(Current/Filed)
310kts
Departed: 24-Oct-23 10:15 AM
Arrived: 24-Oct-23 11:35 AM
Distance/Time
Traveled:
299nm/1:19
Distance/Time
To Go:
Arrived

Flight Plot

Page will automatically refresh every two minutes.

Flight plan parsing failed; only flown route is shown


Map Options




Map Legend


Flown Route
Filed Route
Departure Airport
Arrival Airport
Navaid (VOR, NDB)
Fix

Horizontal Profiles

Position Reports

Time Latitude Longitude Heading Altitude Ground
Speed
24-Oct-23 09:58 33.950195 -117.443016 313 818ft 0kts
24-Oct-23 09:59 33.950195 -117.443016 313 818ft 0kts
24-Oct-23 10:00 33.950195 -117.443016 313 818ft 0kts
24-Oct-23 10:01 33.950195 -117.443016 313 818ft 0kts
24-Oct-23 10:02 33.950195 -117.443016 313 818ft 0kts
24-Oct-23 10:03 33.950195 -117.443016 313 818ft 0kts
24-Oct-23 10:04 33.950195 -117.443016 313 818ft 0kts
24-Oct-23 10:05 33.950195 -117.443016 313 818ft 0kts
24-Oct-23 10:06 33.950195 -117.443016 313 818ft 0kts
24-Oct-23 10:07 33.950237 -117.442832 27 818ft 11kts
24-Oct-23 10:08 33.950589 -117.439022 106 818ft 11kts
24-Oct-23 10:09 33.949946 -117.435098 60 818ft 0kts
24-Oct-23 10:10 33.949946 -117.435098 60 818ft 0kts
24-Oct-23 10:11 33.949946 -117.435098 60 818ft 0kts
24-Oct-23 10:12 33.949946 -117.435098 60 818ft 0kts
24-Oct-23 10:13 33.949960 -117.435069 58 818ft 2kts
24-Oct-23 10:14 33.952373 -117.444205 280 846ft 112kts
24-Oct-23 10:15 33.952642 -117.487494 239 2777ft 136kts
24-Oct-23 10:16 33.930726 -117.522719 262 4931ft 137kts
24-Oct-23 10:17 33.932644 -117.568164 290 6919ft 142kts
24-Oct-23 10:18 33.947610 -117.612754 293 8930ft 147kts
24-Oct-23 10:19 33.966911 -117.655024 314 11025ft 145kts
24-Oct-23 10:20 33.993033 -117.690429 316 13236ft 142kts
24-Oct-23 10:21 34.019196 -117.725515 317 15334ft 142kts
24-Oct-23 10:22 34.045662 -117.761018 317 17416ft 145kts
24-Oct-23 10:23 34.072163 -117.796620 318 19487ft 146kts
24-Oct-23 10:24 34.099270 -117.833044 320 21604ft 147kts
24-Oct-23 10:25 34.126747 -117.869999 320 23612ft 150kts
24-Oct-23 10:26 34.154312 -117.907127 322 25871ft 147kts
24-Oct-23 10:27 34.190087 -117.954995 319 25982ft 225kts
24-Oct-23 10:28 34.234536 -118.015104 318 25959ft 251kts
24-Oct-23 10:30 34.282137 -118.079531 318 25969ft 260kts
24-Oct-23 10:31 34.330702 -118.145333 317 25970ft 263kts
24-Oct-23 10:32 34.379478 -118.211566 318 25987ft 264kts
24-Oct-23 10:33 34.428309 -118.277996 318 25994ft 264kts
24-Oct-23 10:34 34.477062 -118.344446 317 25989ft 263kts
24-Oct-23 10:35 34.525513 -118.410616 317 25984ft 263kts
24-Oct-23 10:36 34.573850 -118.476760 317 25990ft 262kts
24-Oct-23 10:37 34.622213 -118.543035 317 25988ft 262kts
24-Oct-23 10:38 34.670261 -118.609052 317 25986ft 261kts
24-Oct-23 10:39 34.717858 -118.674543 316 26005ft 260kts
24-Oct-23 10:40 34.765815 -118.740663 316 26028ft 260kts
24-Oct-23 10:41 34.813618 -118.806684 316 26041ft 260kts
24-Oct-23 10:42 34.861323 -118.872713 316 26018ft 260kts
24-Oct-23 10:43 34.909190 -118.939073 316 25995ft 260kts
24-Oct-23 10:44 34.956926 -119.005406 316 25972ft 260kts
24-Oct-23 10:45 35.004590 -119.071745 316 25955ft 260kts
24-Oct-23 10:46 35.052037 -119.137910 316 25954ft 259kts
24-Oct-23 10:47 35.099357 -119.204016 316 25954ft 258kts
24-Oct-23 10:48 35.146771 -119.270407 316 25967ft 260kts
24-Oct-23 10:49 35.194350 -119.337147 316 25966ft 260kts
24-Oct-23 10:50 35.241758 -119.403772 316 25965ft 260kts
24-Oct-23 10:51 35.289128 -119.470475 315 25964ft 259kts
24-Oct-23 10:52 35.336296 -119.537023 315 25963ft 258kts
24-Oct-23 10:53 35.383209 -119.603338 315 25970ft 257kts
24-Oct-23 10:54 35.430014 -119.669632 315 25971ft 257kts
24-Oct-23 10:55 35.476820 -119.736048 315 25967ft 256kts
24-Oct-23 10:56 35.523303 -119.802138 314 25966ft 255kts
24-Oct-23 10:57 35.569413 -119.867828 314 25970ft 254kts
24-Oct-23 10:57 35.607800 -119.922607 314 25973ft 254kts
24-Oct-23 10:58 35.650899 -119.991450 299 25980ft 261kts
24-Oct-23 11:00 35.683052 -120.088108 299 25979ft 262kts
24-Oct-23 11:01 35.710232 -120.170821 299 25978ft 261kts
24-Oct-23 11:01 35.732889 -120.239979 299 25977ft 261kts
24-Oct-23 11:03 35.764549 -120.336891 299 25964ft 262kts
24-Oct-23 11:04 35.791694 -120.420207 298 25968ft 263kts
24-Oct-23 11:04 35.814346 -120.489930 298 25965ft 264kts
24-Oct-23 11:05 35.841619 -120.574056 298 25966ft 263kts
24-Oct-23 11:06 35.868551 -120.657428 298 25978ft 265kts
24-Oct-23 11:07 35.895888 -120.742233 298 25967ft 266kts
24-Oct-23 11:09 35.927609 -120.841030 298 25957ft 266kts
24-Oct-23 11:09 35.950377 -120.912069 297 25963ft 267kts
24-Oct-23 11:10 35.978332 -120.996802 305 25947ft 262kts
24-Oct-23 11:11 36.032502 -121.053146 325 25963ft 256kts
24-Oct-23 11:12 36.091153 -121.103995 325 25671ft 265kts
24-Oct-23 11:13 36.153307 -121.157758 325 24692ft 277kts
24-Oct-23 11:14 36.216542 -121.212543 324 23700ft 277kts
24-Oct-23 11:15 36.279746 -121.267409 324 22718ft 278kts
24-Oct-23 11:16 36.343032 -121.322440 324 21739ft 279kts
24-Oct-23 11:17 36.406819 -121.378040 324 20663ft 283kts
24-Oct-23 11:18 36.472032 -121.435000 324 19158ft 291kts
24-Oct-23 11:19 36.538460 -121.493131 324 17645ft 292kts
24-Oct-23 11:20 36.604658 -121.551192 325 16133ft 292kts
24-Oct-23 11:21 36.673108 -121.602916 355 14541ft 292kts
24-Oct-23 11:22 36.753657 -121.595134 3 13066ft 291kts
24-Oct-23 11:23 36.832888 -121.587939 3 11254ft 281kts
24-Oct-23 11:24 36.909780 -121.580953 3 9437ft 275kts
24-Oct-23 11:25 36.985573 -121.574065 4 7740ft 270kts
24-Oct-23 11:26 37.057510 -121.580584 315 6086ft 265kts
24-Oct-23 11:27 37.106934 -121.644291 317 5068ft 256kts
24-Oct-23 11:28 37.158200 -121.705858 316 4076ft 257kts
24-Oct-23 11:29 37.209040 -121.761977 319 3605ft 231kts
24-Oct-23 11:30 37.255332 -121.812641 319 2716ft 215kts
24-Oct-23 11:31 37.295548 -121.856438 319 1641ft 161kts
24-Oct-23 11:32 37.328490 -121.892369 318 877ft 138kts
24-Oct-23 11:33 37.351786 -121.917966 318 215ft 90kts
24-Oct-23 11:34 37.362307 -121.930579 237 65ft 20kts
24-Oct-23 11:35 37.359207 -121.930231 135 65ft 9kts
24-Oct-23 11:36 37.357798 -121.929730 226 65ft 0kts
24-Oct-23 11:37 37.357798 -121.929730 226 65ft 0kts
24-Oct-23 11:38 37.357798 -121.929730 226 65ft 0kts
24-Oct-23 11:39 37.357799 -121.929730 226 65ft 0kts
24-Oct-23 11:40 37.357799 -121.929730 226 65ft 0kts
24-Oct-23 11:41 37.357799 -121.929730 226 65ft 0kts
24-Oct-23 11:42 37.357799 -121.929730 226 65ft 0kts
24-Oct-23 11:43 37.357799 -121.929730 226 65ft 0kts
24-Oct-23 11:44 37.357799 -121.929730 226 65ft 0kts
24-Oct-23 11:45 37.357799 -121.929730 226 65ft 0kts
24-Oct-23 11:46 37.357799 -121.929730 226 65ft 0kts

Navigation Log

Ident Type
Flight plan parsing failed, navigation log unavailable